Airfield :







YOU CAN JOIN US ON...

 
LOGIN :

Register | Disclaimer

   EN    FR    IT 

 









Legend :    VFR   Marginal VFR   IFR   Intensive IFR   Very Intensive IFR
Visi :
Ceiling :
>= 8 km
>= 3000ft
5 to 8 km
1000 to 3000 ft
1500m to 5 km
500 to 1000 ft
800 to 1500m
200 to 500 ft
< 800m
< 200 ft
Symbols :   Thunderstorms  Fog  Heavy snow  Heavy precipitations  Wind > 20 kt






- Airport Elevation : 11 ft


KGHG - Marshfield Municipal George Harlow Field

CURRENT METAR :
  • 271735Z AUTO 24008G16KT 220V280 10SM FEW035 FEW110 07/M01 A2956 RMK AO2

EXPIRED METARs :
  • 271715Z AUTO 26008G16KT 10SM FEW100 07/M01 A2957 RMK AO2
  • 271655Z AUTO VRB05G14KT 10SM FEW060 FEW100 07/M01 A2957 RMK AO2
  • 271635Z AUTO VRB05G12KT 10SM BKN060 06/M01 A2958 RMK AO2
  • 271615Z AUTO 26008G13KT 220V290 10SM FEW060 06/M01 A2959 RMK AO2
  • 271555Z AUTO VRB05G12KT 10SM SCT055 SCT065 06/M01 A2960 RMK AO2
  • 271515Z AUTO 26008KT 230V300 10SM SCT050 SCT065 BKN110 05/M01 A2961 RMK AO2
  • 271455Z AUTO VRB05KT 10SM BKN055 05/M01 A2962 RMK AO2

TAF N/A



MET'MAP, your aeronautical weather chart ! - Copyright ORBIFLY December 2007 - Disclaimer

ORBIFLY MET'MAP TEAM :

Programming & Development : Alexandra Zaïnal
Concept & original design : Baudouin d'Aumeries
Assistance for programming : Marc-Olivier Méhu
Technical & hardware support : Manuel Goepfert

Contact : metmap@orbifly.com




SOURCES & CREDITS :

   NOAA